Time;durP1;ratioP1;P1;durP2;ratioP2;P2;SDS_P1;SDS_P2;PMS_P1;PMS_P2;Temp;Humidity;BMP_temperature;BMP_pressure;BME280_temperature;BME280_humidity;BME280_pressure;Samples;Min_cycle;Max_cycle;Signal;HPM_P1;HPM_P2
2021/05/18 00:02:36;;;;;;;1.70;0.50;;;10.30;22.30;;;;;;5074491;28;20059;-63
2021/05/18 00:05:25;;;;;;;0.88;0.30;;;10.30;19.50;;;;;;5077849;28;20127;-63
2021/05/18 00:08:16;;;;;;;2.05;0.38;;;10.30;20.50;;;;;;5080600;28;20067;-65
2021/05/18 00:14:13;;;;;;;2.03;0.60;;;10.20;24.80;;;;;;5079031;27;20412;-64
2021/05/18 00:17:01;;;;;;;3.45;0.60;;;10.10;28.90;;;;;;5075834;28;20052;-64
2021/05/18 00:19:49;;;;;;;1.08;0.60;;;10.00;30.50;;;;;;5075632;28;20562;-64
2021/05/18 00:22:38;;;;;;;0.95;0.52;;;10.00;33.40;;;;;;5075748;28;20055;-65
2021/05/18 00:25:26;;;;;;;1.63;0.60;;;9.90;35.10;;;;;;5080430;28;20080;-64
2021/05/18 00:28:29;;;;;;;1.63;0.55;;;9.80;35.70;;;;;;5068141;28;20052;-65
2021/05/18 00:31:17;;;;;;;2.05;0.68;;;9.90;37.20;;;;;;5079754;28;20048;-65
2021/05/18 00:34:06;;;;;;;1.95;0.70;;;9.90;37.90;;;;;;5078729;28;20059;-65
2021/05/18 00:36:53;;;;;;;1.98;0.80;;;9.90;36.40;;;;;;5075978;28;20048;-65
2021/05/18 00:39:41;;;;;;;1.40;0.60;;;10.00;34.10;;;;;;5081749;28;20105;-65
2021/05/18 00:42:31;;;;;;;1.48;0.70;;;10.00;33.80;;;;;;5067898;28;20143;-65
2021/05/18 00:45:33;;;;;;;2.05;0.80;;;9.90;33.30;;;;;;5079337;28;20098;-65
2021/05/18 00:48:22;;;;;;;1.88;0.52;;;9.90;35.70;;;;;;5070111;28;20044;-65
2021/05/18 00:51:12;;;;;;;1.02;0.47;;;9.90;36.20;;;;;;5079779;28;20041;-65
2021/05/18 00:54:03;;;;;;;0.80;0.40;;;9.90;36.70;;;;;;5075493;28;20044;-65
2021/05/18 01:00:08;;;;;;;1.48;0.80;;;9.90;35.00;;;;;;5072742;28;20488;-65
2021/05/18 01:02:56;;;;;;;1.98;0.60;;;9.90;34.90;;;;;;5065464;28;20084;-65
2021/05/18 01:08:52;;;;;;;2.25;0.60;;;9.90;34.90;;;;;;5076019;28;20047;-66
2021/05/18 01:11:43;;;;;;;1.85;0.50;;;9.80;33.50;;;;;;5072246;28;20055;-65
2021/05/18 01:14:31;;;;;;;1.00;0.32;;;9.80;35.40;;;;;;5077380;28;20072;-64
2021/05/18 01:17:20;;;;;;;1.25;0.57;;;9.80;35.70;;;;;;5064271;28;20512;-64
2021/05/18 01:20:11;;;;;;;2.22;0.50;;;9.80;35.20;;;;;;5060188;28;20048;-66
2021/05/18 01:23:01;;;;;;;0.82;0.60;;;9.80;34.60;;;;;;5078437;28;20478;-66
2021/05/18 01:25:50;;;;;;;1.33;0.50;;;9.80;35.00;;;;;;5068963;28;20055;-66
2021/05/18 01:28:38;;;;;;;1.45;0.35;;;9.80;34.10;;;;;;5062014;28;20059;-65
2021/05/18 01:31:27;;;;;;;0.47;0.40;;;9.80;34.00;;;;;;5072416;28;20047;-65
2021/05/18 01:34:15;;;;;;;1.05;0.50;;;9.90;33.80;;;;;;5076689;28;20050;-66
2021/05/18 01:37:04;;;;;;;3.40;0.70;;;9.90;34.80;;;;;;5073135;28;20175;-65
2021/05/18 01:40:02;;;;;;;1.45;0.57;;;9.80;35.70;;;;;;5066450;28;20043;-66
2021/05/18 01:42:58;;;;;;;1.45;0.60;;;9.80;35.40;;;;;;5072125;28;20184;-66
2021/05/18 01:45:47;;;;;;;0.90;0.60;;;9.80;36.60;;;;;;5068727;28;20048;-65
2021/05/18 01:48:36;;;;;;;0.75;0.50;;;9.80;37.80;;;;;;5076628;28;20071;-65
2021/05/18 01:51:26;;;;;;;3.30;1.08;;;9.70;37.70;;;;;;5057818;28;20056;-66
2021/05/18 01:54:16;;;;;;;1.10;0.60;;;9.80;37.80;;;;;;5077588;28;20110;-65
2021/05/18 01:57:18;;;;;;;2.80;0.80;;;9.80;40.10;;;;;;5057751;28;20059;-66
2021/05/18 02:00:21;;;;;;;3.58;0.60;;;9.70;40.80;;;;;;5059550;28;20052;-65
2021/05/18 02:03:16;;;;;;;2.33;0.70;;;9.80;42.00;;;;;;5066097;28;20052;-65
2021/05/18 02:06:05;;;;;;;2.20;0.50;;;9.70;41.60;;;;;;5078628;28;20048;-65
2021/05/18 02:09:13;;;;;;;0.57;0.50;;;9.70;41.90;;;;;;5059892;28;20048;-65
2021/05/18 02:12:05;;;;;;;1.48;0.80;;;9.70;41.90;;;;;;5058001;28;20182;-65
2021/05/18 02:14:58;;;;;;;0.52;0.32;;;9.70;43.20;;;;;;5063637;28;20052;-64
2021/05/18 02:17:52;;;;;;;1.65;0.50;;;9.60;42.90;;;;;;5078128;28;20598;-65
2021/05/18 02:20:45;;;;;;;2.20;1.48;;;9.70;42.80;;;;;;5072487;28;20361;-65
2021/05/18 02:26:45;;;;;;;2.20;0.70;;;9.50;42.70;;;;;;5075589;28;20052;-64
2021/05/18 02:29:34;;;;;;;2.78;0.80;;;9.50;42.50;;;;;;5055106;28;20048;-64
2021/05/18 02:32:26;;;;;;;1.23;0.75;;;9.50;42.70;;;;;;5060541;28;20040;-64
2021/05/18 02:35:34;;;;;;;1.13;0.63;;;9.40;41.70;;;;;;5063878;28;20420;-64
2021/05/18 02:38:24;;;;;;;1.30;0.52;;;9.40;40.90;;;;;;5032641;28;20072;-65
2021/05/18 02:41:14;;;;;;;2.55;0.70;;;9.40;41.20;;;;;;5036182;28;20060;-64
2021/05/18 02:44:09;;;;;;;2.03;0.68;;;9.40;41.60;;;;;;5046301;28;20055;-64
2021/05/18 02:50:19;;;;;;;1.98;0.70;;;9.30;42.00;;;;;;5060608;28;20045;-64
2021/05/18 02:53:08;;;;;;;1.83;0.80;;;9.30;42.50;;;;;;5029743;28;20150;-64
2021/05/18 02:56:04;;;;;;;3.53;0.70;;;9.30;43.30;;;;;;5047294;28;20045;-64
2021/05/18 02:58:58;;;;;;;1.75;0.60;;;9.30;43.10;;;;;;5055449;28;20073;-64
2021/05/18 03:01:51;;;;;;;2.88;0.75;;;9.30;43.30;;;;;;5052777;28;20114;-65
2021/05/18 03:04:39;;;;;;;2.13;0.85;;;9.30;43.30;;;;;;5058426;28;20041;-64
2021/05/18 03:07:29;;;;;;;2.47;0.88;;;9.30;42.60;;;;;;5043988;28;20049;-64
2021/05/18 03:10:21;;;;;;;4.63;0.90;;;9.30;42.20;;;;;;5056707;28;20075;-64
2021/05/18 03:13:09;;;;;;;2.50;0.60;;;9.30;41.60;;;;;;5057002;28;20041;-65
2021/05/18 03:15:57;;;;;;;0.73;0.60;;;9.40;40.00;;;;;;5053858;28;20040;-65
2021/05/18 03:18:45;;;;;;;1.23;0.50;;;9.40;40.90;;;;;;5053827;28;20056;-65
2021/05/18 03:21:34;;;;;;;0.75;0.50;;;9.40;40.90;;;;;;5058584;28;20049;-65
2021/05/18 03:24:23;;;;;;;1.05;0.60;;;9.50;39.30;;;;;;5066078;28;20045;-65
2021/05/18 03:27:11;;;;;;;1.60;0.45;;;9.50;39.40;;;;;;5063701;28;20427;-65
2021/05/18 03:30:01;;;;;;;0.80;0.60;;;9.50;38.00;;;;;;5062650;28;20049;-65
2021/05/18 03:35:58;;;;;;;1.65;0.50;;;9.40;37.50;;;;;;5061057;28;20052;-64
2021/05/18 03:38:48;;;;;;;1.77;0.70;;;9.40;38.30;;;;;;5057187;28;20048;-64
2021/05/18 03:41:49;;;;;;;1.10;0.50;;;9.40;37.50;;;;;;5063862;28;20588;-65
2021/05/18 03:44:53;;;;;;;2.25;0.73;;;9.40;37.50;;;;;;5050574;28;20063;-65
2021/05/18 03:54:10;;;;;;;1.02;0.70;;;9.40;35.30;;;;;;5013474;28;20048;-65
2021/05/18 04:03:19;;;;;;;2.40;0.88;;;9.40;35.40;;;;;;5045790;28;20520;-65
2021/05/18 04:18:53;;;;;;;4.82;0.88;;;9.60;33.00;;;;;;5060065;28;20130;-64
2021/05/18 04:22:00;;;;;;;1.25;0.95;;;9.60;32.90;;;;;;5058137;28;20045;-64
2021/05/18 04:25:11;;;;;;;1.38;0.70;;;9.70;33.30;;;;;;5064076;28;20048;-65
2021/05/18 04:49:54;;;;;;;1.58;0.90;;;9.70;32.90;;;;;;5058145;28;20045;-65
2021/05/18 04:52:51;;;;;;;2.17;0.70;;;9.70;30.80;;;;;;5061453;28;20134;-65
2021/05/18 04:59:03;;;;;;;1.73;0.73;;;9.80;31.40;;;;;;5058254;28;20056;-65
2021/05/18 05:02:06;;;;;;;1.50;0.80;;;9.90;32.10;;;;;;5044193;28;20045;-65
2021/05/18 05:08:02;;;;;;;;;;;9.90;29.60;;;;;;5057652;28;20051;-65
2021/05/18 05:14:17;;;;;;;4.63;0.88;;;10.00;28.90;;;;;;5063155;28;20048;-63
2021/05/18 05:17:06;;;;;;;2.75;0.93;;;10.00;28.20;;;;;;5061590;28;20129;-65
2021/05/18 05:19:54;;;;;;;2.10;0.85;;;10.10;27.50;;;;;;5058970;28;20095;-65
2021/05/18 05:22:42;;;;;;;2.45;1.40;;;10.10;27.70;;;;;;5043951;28;20043;-66
2021/05/18 05:25:30;;;;;;;0.60;0.47;;;10.20;26.90;;;;;;5057628;28;20147;-65
2021/05/18 05:28:19;;;;;;;1.35;0.80;;;10.20;26.50;;;;;;5045627;28;20191;-64
2021/05/18 05:31:07;;;;;;;3.75;0.90;;;10.10;25.60;;;;;;5062929;28;20055;-64
2021/05/18 05:33:55;;;;;;;9.68;1.00;;;10.10;26.70;;;;;;5058844;28;20048;-65
2021/05/18 05:36:43;;;;;;;1.90;0.90;;;10.10;26.50;;;;;;5060077;28;20138;-65
2021/05/18 05:39:31;;;;;;;1.35;0.90;;;10.10;27.20;;;;;;5058748;28;20045;-65
2021/05/18 05:42:20;;;;;;;2.60;0.93;;;10.20;28.80;;;;;;5056559;28;20053;-66
2021/05/18 05:45:10;;;;;;;1.50;1.00;;;10.10;27.70;;;;;;5062239;28;20148;-65
2021/05/18 05:47:58;;;;;;;2.25;0.93;;;10.20;27.60;;;;;;5058384;28;20064;-65
2021/05/18 05:50:47;;;;;;;2.05;0.80;;;10.40;26.70;;;;;;5058889;28;20543;-65
2021/05/18 05:53:35;;;;;;;2.83;0.70;;;10.50;26.40;;;;;;5057496;28;20171;-66
2021/05/18 05:56:23;;;;;;;1.33;0.70;;;10.50;25.80;;;;;;5043087;28;20052;-66
2021/05/18 05:59:11;;;;;;;2.22;1.00;;;10.50;27.00;;;;;;5058431;28;20083;-65
2021/05/18 06:01:59;;;;;;;2.42;0.70;;;10.30;28.50;;;;;;5057927;28;20577;-65
2021/05/18 06:04:48;;;;;;;1.55;1.10;;;10.20;33.20;;;;;;5058210;28;20057;-65
2021/05/18 06:07:36;;;;;;;1.60;0.82;;;10.10;37.10;;;;;;5057075;28;21577;-64
2021/05/18 06:10:27;;;;;;;2.70;1.38;;;9.90;37.90;;;;;;5057427;28;20139;-65
2021/05/18 06:16:48;;;;;;;3.60;1.42;;;9.80;44.10;;;;;;5057780;28;20052;-65
2021/05/18 06:47:31;;;;;;;2.83;1.13;;;10.70;36.10;;;;;;5057352;28;20120;-66
2021/05/18 06:50:29;;;;;;;2.30;1.10;;;10.90;36.80;;;;;;5061288;28;20075;-66
2021/05/18 06:53:18;;;;;;;2.28;1.00;;;11.10;32.40;;;;;;5054056;28;20056;-65
2021/05/18 06:56:06;;;;;;;1.90;0.77;;;11.10;29.70;;;;;;5055037;28;20134;-65
2021/05/18 07:02:04;;;;;;;1.58;0.80;;;11.20;28.10;;;;;;5040098;28;20037;-64
2021/05/18 07:04:55;;;;;;;1.95;0.85;;;11.10;25.20;;;;;;5063049;28;20112;-65
2021/05/18 07:07:44;;;;;;;2.05;1.00;;;11.10;26.20;;;;;;5055039;28;20041;-64
2021/05/18 07:10:33;;;;;;;2.28;0.90;;;11.20;26.30;;;;;;5054926;28;20068;-64
2021/05/18 07:13:21;;;;;;;1.58;0.90;;;11.30;24.60;;;;;;5054363;28;20170;-65
2021/05/18 07:16:09;;;;;;;1.02;0.70;;;11.40;23.90;;;;;;5061755;28;20166;-64
2021/05/18 07:18:57;;;;;;;5.45;1.25;;;11.40;23.00;;;;;;5053168;28;20272;-65
2021/05/18 07:21:45;;;;;;;2.42;0.90;;;11.40;23.80;;;;;;5057066;28;20052;-65
2021/05/18 07:24:33;;;;;;;3.78;1.25;;;11.50;22.90;;;;;;5055747;28;20122;-65
2021/05/18 07:27:21;;;;;;;3.67;1.17;;;11.50;25.00;;;;;;5058540;28;20081;-65
2021/05/18 07:30:11;;;;;;;1.75;1.13;;;11.30;22.90;;;;;;5058287;28;20538;-65
2021/05/18 07:32:59;;;;;;;3.83;1.17;;;11.60;23.20;;;;;;5057231;28;20059;-65
2021/05/18 07:35:52;;;;;;;1.77;1.10;;;11.80;21.90;;;;;;5057619;28;20508;-65
2021/05/18 07:38:42;;;;;;;3.42;1.10;;;11.70;20.10;;;;;;5058692;28;20175;-65
2021/05/18 07:41:32;;;;;;;2.67;1.10;;;11.70;19.70;;;;;;5058431;28;20071;-65
2021/05/18 07:44:21;;;;;;;3.55;1.10;;;11.80;21.70;;;;;;5059059;28;20126;-65
2021/05/18 07:47:12;;;;;;;4.45;1.20;;;11.80;17.30;;;;;;5054927;28;20135;-65
2021/05/18 07:50:03;;;;;;;3.13;1.10;;;12.10;20.00;;;;;;5056359;28;20045;-65
2021/05/18 07:59:20;;;;;;;5.18;1.20;;;12.00;18.00;;;;;;5057121;28;20180;-65
2021/05/18 08:02:23;;;;;;;3.03;1.27;;;12.30;16.60;;;;;;5057673;28;20132;-64
2021/05/18 08:05:18;;;;;;;4.57;1.52;;;12.30;16.20;;;;;;5055500;28;20052;-66
2021/05/18 08:08:10;;;;;;;4.20;1.55;;;12.40;13.10;;;;;;5054695;28;20060;-66
2021/05/18 08:11:01;;;;;;;5.97;2.10;;;12.70;12.40;;;;;;5048298;28;20115;-66
2021/05/18 08:13:55;;;;;;;6.55;1.50;;;12.50;13.20;;;;;;5061798;28;20036;-65
2021/05/18 10:36:31;;;;;;;2.58;0.60;;;15.10;1.00;;;;;;5055897;28;20075;-66
2021/05/18 10:39:22;;;;;;;2.00;0.98;;;14.50;1.00;;;;;;5054928;28;20045;-65
2021/05/18 10:42:12;;;;;;;4.93;1.02;;;15.60;1.00;;;;;;5054047;28;20052;-66
2021/05/18 10:45:00;;;;;;;1.75;0.80;;;15.90;1.00;;;;;;5052154;28;20124;-64
2021/05/18 10:47:57;;;;;;;2.75;0.95;;;15.50;1.00;;;;;;5053735;28;20041;-65
2021/05/18 10:50:46;;;;;;;1.45;0.68;;;15.30;1.00;;;;;;5040657;28;20082;-65
2021/05/18 10:53:37;;;;;;;1.50;0.70;;;15.30;1.00;;;;;;5057237;28;20512;-66
2021/05/18 10:56:25;;;;;;;4.10;0.90;;;15.30;1.00;;;;;;5055178;28;20095;-66
2021/05/18 10:59:17;;;;;;;4.15;1.00;;;15.10;1.00;;;;;;5052141;28;20067;-65
2021/05/18 11:02:09;;;;;;;1.42;0.60;;;15.30;1.00;;;;;;5058415;28;20055;-65
2021/05/18 11:05:00;;;;;;;1.08;0.50;;;14.70;1.00;;;;;;5057687;28;20075;-65
2021/05/18 11:07:48;;;;;;;3.42;0.68;;;14.10;1.00;;;;;;5059717;28;20202;-66
2021/05/18 11:10:36;;;;;;;3.70;1.20;;;14.30;1.00;;;;;;5057228;28;20076;-65
2021/05/18 11:13:24;;;;;;;4.22;1.08;;;14.90;1.00;;;;;;5051955;28;20057;-65
2021/05/18 11:16:16;;;;;;;2.35;0.55;;;15.80;1.00;;;;;;5037740;28;20045;-66
2021/05/18 11:19:12;;;;;;;2.22;0.93;;;15.50;1.00;;;;;;5057812;28;20167;-65
2021/05/18 11:22:03;;;;;;;1.23;0.65;;;15.80;1.00;;;;;;5054246;28;20037;-66
2021/05/18 11:24:50;;;;;;;3.60;1.00;;;16.10;1.00;;;;;;5061327;28;20040;-64
2021/05/18 11:27:39;;;;;;;2.80;0.95;;;16.00;1.00;;;;;;5055394;28;20402;-64
2021/05/18 11:30:27;;;;;;;1.83;1.00;;;16.40;1.00;;;;;;5051715;28;20502;-64
2021/05/18 11:33:16;;;;;;;2.50;0.73;;;16.90;1.00;;;;;;5053008;28;20052;-64
2021/05/18 11:36:09;;;;;;;3.20;0.88;;;16.40;1.00;;;;;;5053125;28;20056;-64
2021/05/18 11:39:01;;;;;;;2.95;0.60;;;16.40;1.00;;;;;;5057623;28;20051;-65
2021/05/18 11:41:53;;;;;;;1.20;0.50;;;16.00;1.00;;;;;;5060403;28;20535;-64
2021/05/18 11:44:43;;;;;;;2.50;0.70;;;15.60;1.00;;;;;;5060464;28;21116;-64
2021/05/18 11:47:31;;;;;;;2.55;0.80;;;15.80;1.00;;;;;;5055394;28;20040;-64
2021/05/18 11:50:24;;;;;;;2.10;0.70;;;15.70;1.00;;;;;;5055071;28;20048;-65
2021/05/18 11:53:30;;;;;;;3.53;0.47;;;15.80;1.00;;;;;;5060189;28;20053;-64
2021/05/18 11:56:25;;;;;;;1.42;0.30;;;15.20;1.00;;;;;;5064559;28;20099;-65
2021/05/18 11:59:15;;;;;;;1.13;0.52;;;14.70;1.00;;;;;;5053594;28;20049;-65
2021/05/18 12:02:06;;;;;;;0.60;0.30;;;15.10;1.00;;;;;;5048405;28;20080;-64
2021/05/18 12:05:04;;;;;;;0.40;0.20;;;15.00;1.00;;;;;;5056776;28;20534;-60
2021/05/18 12:07:52;;;;;;;4.45;0.70;;;15.10;1.00;;;;;;5057036;28;20068;-61
2021/05/18 12:10:42;;;;;;;2.30;0.40;;;15.10;1.00;;;;;;5062957;28;20060;-61
2021/05/18 12:13:31;;;;;;;2.38;0.57;;;15.70;1.00;;;;;;5055843;28;20051;-61
2021/05/18 12:16:21;;;;;;;1.67;0.50;;;16.20;1.00;;;;;;5054260;28;20060;-64
2021/05/18 12:19:12;;;;;;;2.15;0.50;;;16.10;1.00;;;;;;5056845;28;21510;-62
2021/05/18 12:22:00;;;;;;;0.93;0.60;;;15.90;1.00;;;;;;5044270;28;20055;-62
2021/05/18 12:24:48;;;;;;;3.78;0.75;;;16.40;1.00;;;;;;5059666;28;20079;-62
2021/05/18 12:27:47;;;;;;;2.45;0.60;;;16.50;1.00;;;;;;5058817;28;20115;-62
2021/05/18 12:30:40;;;;;;;1.63;0.52;;;16.40;1.00;;;;;;5055177;28;20521;-61
2021/05/18 12:33:36;;;;;;;3.42;0.77;;;15.90;1.00;;;;;;5056364;28;20051;-61
2021/05/18 12:36:24;;;;;;;2.70;0.75;;;16.00;1.00;;;;;;5056952;28;20421;-62
2021/05/18 12:39:14;;;;;;;2.22;1.27;;;15.60;1.00;;;;;;5060522;28;20040;-62
2021/05/18 12:42:05;;;;;;;1.92;0.63;;;16.00;1.00;;;;;;5044041;28;20895;-62
2021/05/18 12:44:57;;;;;;;1.45;0.50;;;16.40;1.00;;;;;;5058185;28;20037;-61
2021/05/18 12:47:54;;;;;;;2.47;0.93;;;16.90;1.00;;;;;;5054685;28;20044;-61
2021/05/18 12:50:46;;;;;;;2.05;0.60;;;17.00;1.00;;;;;;5056026;28;20041;-62
2021/05/18 12:53:34;;;;;;;3.60;0.60;;;17.30;1.00;;;;;;5059612;28;20048;-62
2021/05/18 12:56:28;;;;;;;1.38;0.70;;;16.90;1.00;;;;;;5057848;28;20080;-62
2021/05/18 12:59:16;;;;;;;2.90;0.90;;;16.70;1.00;;;;;;5057121;28;20077;-61
2021/05/18 13:02:05;;;;;;;1.65;0.40;;;17.00;1.00;;;;;;5057957;28;20060;-62
2021/05/18 13:05:16;;;;;;;3.88;0.65;;;16.80;1.00;;;;;;5042657;28;20119;-62
2021/05/18 13:08:10;;;;;;;2.05;0.60;;;16.90;1.00;;;;;;5041001;28;20075;-61
2021/05/18 13:11:15;;;;;;;1.33;0.52;;;17.50;1.00;;;;;;5056820;28;20067;-61
2021/05/18 13:14:06;;;;;;;2.67;0.70;;;16.90;1.00;;;;;;5055679;28;20476;-62
2021/05/18 13:17:05;;;;;;;2.38;0.70;;;16.90;1.00;;;;;;5054348;28;20205;-63
2021/05/18 13:19:59;;;;;;;1.40;0.43;;;17.50;1.00;;;;;;5061229;28;20146;-61
2021/05/18 13:22:52;;;;;;;2.35;0.43;;;17.50;1.00;;;;;;5057048;28;20530;-62
2021/05/18 13:28:46;;;;;;;4.53;0.52;;;17.80;1.00;;;;;;5053894;28;20383;-62
2021/05/18 13:31:36;;;;;;;3.30;0.88;;;17.40;1.00;;;;;;5041320;28;20045;-62
2021/05/18 13:34:25;;;;;;;2.28;0.60;;;17.20;1.00;;;;;;5043795;28;20044;-62
2021/05/18 13:37:14;;;;;;;2.80;0.70;;;16.90;1.00;;;;;;5052866;28;20513;-61
2021/05/18 13:40:06;;;;;;;2.10;0.40;;;16.70;1.00;;;;;;5041103;28;20501;-61
2021/05/18 13:42:55;;;;;;;3.67;0.90;;;16.10;1.00;;;;;;5051860;28;20056;-61
2021/05/18 13:45:43;;;;;;;5.65;1.10;;;15.60;1.00;;;;;;5043331;28;20048;-62
2021/05/18 13:48:32;;;;;;;2.60;0.80;;;14.90;1.00;;;;;;5056523;28;20052;-62
2021/05/18 13:51:21;;;;;;;2.38;0.90;;;15.50;1.00;;;;;;5055747;28;20120;-61
2021/05/18 13:54:09;;;;;;;2.92;0.85;;;15.90;1.00;;;;;;5053223;28;20048;-62
2021/05/18 13:56:58;;;;;;;1.63;0.73;;;16.10;1.00;;;;;;5053141;28;20049;-62
2021/05/18 13:59:48;;;;;;;3.10;0.90;;;15.70;1.00;;;;;;5056306;28;20064;-62
2021/05/18 14:02:37;;;;;;;2.80;1.13;;;15.00;1.00;;;;;;5053615;28;20049;-62
2021/05/18 14:05:27;;;;;;;1.90;0.95;;;15.30;1.00;;;;;;5057563;28;20657;-61
2021/05/18 14:08:27;;;;;;;4.22;0.80;;;15.50;1.00;;;;;;5041861;28;20060;-61
2021/05/18 14:11:17;;;;;;;3.05;0.80;;;15.40;1.00;;;;;;5056683;28;20052;-61
2021/05/18 14:14:05;;;;;;;1.73;0.40;;;15.20;1.00;;;;;;5048959;28;20049;-61
2021/05/18 14:16:53;;;;;;;2.22;0.43;;;15.40;1.00;;;;;;5052434;28;20135;-62
2021/05/18 14:19:41;;;;;;;2.53;0.40;;;15.70;1.00;;;;;;5054879;28;20186;-61
2021/05/18 14:22:30;;;;;;;2.17;0.60;;;15.70;1.00;;;;;;5056670;28;20191;-61
2021/05/18 14:25:19;;;;;;;1.30;0.40;;;16.10;1.00;;;;;;5055870;28;20053;-62
2021/05/18 14:28:22;;;;;;;1.25;0.43;;;16.50;1.00;;;;;;5054945;28;20056;-62
2021/05/18 14:31:12;;;;;;;1.98;0.32;;;16.10;1.00;;;;;;5054243;28;20645;-62
2021/05/18 14:34:00;;;;;;;1.02;0.40;;;16.10;1.00;;;;;;5054674;28;20052;-61
2021/05/18 14:36:48;;;;;;;1.25;0.47;;;16.00;1.00;;;;;;5056766;28;20143;-61
2021/05/18 14:39:50;;;;;;;1.75;0.40;;;16.10;1.00;;;;;;5060985;28;20049;-62
2021/05/18 14:42:52;;;;;;;0.98;0.40;;;15.90;1.00;;;;;;5057300;28;20504;-62
2021/05/18 14:45:41;;;;;;;1.98;0.73;;;15.80;1.00;;;;;;5057904;28;20084;-62
2021/05/18 14:54:51;;;;;;;2.60;0.63;;;15.40;1.00;;;;;;5052839;28;20037;-61
2021/05/18 14:57:40;;;;;;;3.13;0.80;;;15.40;1.00;;;;;;5053224;28;20513;-61
2021/05/18 15:00:28;;;;;;;3.40;0.57;;;15.00;1.00;;;;;;5057333;28;20052;-62
2021/05/18 15:03:17;;;;;;;2.25;0.95;;;14.50;1.00;;;;;;5054439;28;20139;-62
2021/05/18 15:06:05;;;;;;;1.63;0.60;;;14.10;1.00;;;;;;5058404;28;20147;-61
2021/05/18 15:08:53;;;;;;;1.95;0.68;;;14.10;1.00;;;;;;5052012;28;20527;-62
2021/05/18 15:11:41;;;;;;;1.88;0.50;;;14.20;1.00;;;;;;5055541;28;20048;-61
2021/05/18 15:14:30;;;;;;;2.15;0.68;;;14.20;1.00;;;;;;5053137;28;20139;-61
2021/05/18 15:17:18;;;;;;;2.80;0.95;;;14.30;1.00;;;;;;5058179;28;20048;-61
2021/05/18 15:20:07;;;;;;;1.48;0.90;;;14.90;1.00;;;;;;5042643;28;20045;-61
2021/05/18 15:22:55;;;;;;;1.58;0.68;;;15.20;1.00;;;;;;5055405;28;20044;-61
2021/05/18 15:25:43;;;;;;;1.73;0.57;;;15.80;1.00;;;;;;5055878;28;20085;-62
2021/05/18 15:28:31;;;;;;;1.25;0.70;;;16.50;1.00;;;;;;5056873;28;20048;-60
2021/05/18 15:31:20;;;;;;;2.30;0.60;;;16.80;1.00;;;;;;5062014;28;20153;-61
2021/05/18 15:34:08;;;;;;;0.57;0.43;;;16.20;1.00;;;;;;5053002;28;20107;-62
2021/05/18 15:36:56;;;;;;;3.05;0.60;;;15.70;1.00;;;;;;5052575;28;20058;-61
2021/05/18 15:39:45;;;;;;;1.98;0.50;;;15.70;1.00;;;;;;5052196;28;20195;-62
2021/05/18 15:42:32;;;;;;;1.25;0.28;;;15.80;1.00;;;;;;5058933;28;20103;-61
2021/05/18 15:45:20;;;;;;;2.85;0.80;;;16.10;1.00;;;;;;5057527;28;20227;-60
2021/05/18 15:48:09;;;;;;;2.92;0.50;;;15.60;1.00;;;;;;5056852;28;20083;-61
2021/05/18 15:50:57;;;;;;;2.45;0.70;;;15.20;1.00;;;;;;5054645;28;20503;-61
2021/05/18 15:53:46;;;;;;;3.28;0.70;;;14.60;1.00;;;;;;5054991;28;21149;-61
2021/05/18 15:56:35;;;;;;;1.80;0.70;;;14.40;1.00;;;;;;5058980;28;20513;-61
2021/05/18 15:59:24;;;;;;;1.20;0.65;;;14.30;1.00;;;;;;5056361;28;20056;-60
2021/05/18 16:02:12;;;;;;;2.28;0.80;;;13.50;1.00;;;;;;5054281;28;20052;-62
2021/05/18 16:05:01;;;;;;;1.77;0.70;;;13.10;1.00;;;;;;5055194;28;20076;-62
2021/05/18 16:07:53;;;;;;;0.77;0.50;;;12.70;1.00;;;;;;5054173;28;20045;-61
2021/05/18 16:10:42;;;;;;;1.45;0.68;;;12.90;1.00;;;;;;5056588;28;20045;-61
2021/05/18 16:13:31;;;;;;;3.47;0.90;;;12.90;1.00;;;;;;5056638;28;20053;-61
2021/05/18 16:16:19;;;;;;;1.17;0.60;;;12.70;1.00;;;;;;5053764;28;20049;-61
2021/05/18 16:19:10;;;;;;;1.45;0.60;;;12.80;1.00;;;;;;5056032;28;20045;-62
2021/05/18 16:21:59;;;;;;;2.20;1.20;;;13.10;1.00;;;;;;5053619;28;20610;-62
2021/05/18 16:24:47;;;;;;;1.88;1.00;;;13.20;1.00;;;;;;5049479;28;20037;-62
2021/05/18 16:27:35;;;;;;;1.58;0.60;;;13.20;1.00;;;;;;5058681;28;20041;-62
2021/05/18 16:30:23;;;;;;;1.05;0.77;;;13.40;1.00;;;;;;5060503;28;20064;-61
2021/05/18 16:33:11;;;;;;;1.95;0.82;;;13.70;1.00;;;;;;5056328;28;20041;-62
2021/05/18 16:35:59;;;;;;;1.25;0.65;;;13.80;1.00;;;;;;5054188;28;20044;-61
2021/05/18 16:38:53;;;;;;;1.50;0.85;;;13.50;1.00;;;;;;5047337;28;20060;-62
2021/05/18 16:41:56;;;;;;;3.35;0.82;;;13.40;1.00;;;;;;5057697;28;20508;-61
2021/05/18 16:44:44;;;;;;;3.47;0.90;;;13.50;1.00;;;;;;5062807;28;20490;-61
2021/05/18 16:47:38;;;;;;;1.60;0.87;;;13.50;1.00;;;;;;5059291;28;20048;-61
2021/05/18 16:50:26;;;;;;;1.80;1.05;;;13.50;1.00;;;;;;5058739;28;20904;-61
2021/05/18 16:53:14;;;;;;;2.83;1.05;;;13.40;1.00;;;;;;5054976;28;20065;-61
2021/05/18 16:56:05;;;;;;;2.28;0.80;;;13.40;1.00;;;;;;5057843;28;20162;-61
2021/05/18 16:58:53;;;;;;;3.33;0.80;;;13.30;1.00;;;;;;5060565;28;20045;-61
2021/05/18 17:01:41;;;;;;;1.60;0.80;;;13.10;1.00;;;;;;5059221;28;20052;-61
2021/05/18 17:04:35;;;;;;;2.40;0.70;;;13.20;1.00;;;;;;5058162;27;20053;-61
2021/05/18 17:07:23;;;;;;;1.25;0.63;;;12.90;1.00;;;;;;5054205;28;20059;-62
2021/05/18 17:10:12;;;;;;;1.23;0.47;;;12.90;1.00;;;;;;5057924;28;20131;-61
2021/05/18 17:13:02;;;;;;;2.42;0.60;;;12.60;1.00;;;;;;5062999;28;20048;-61
2021/05/18 17:15:51;;;;;;;1.02;0.55;;;12.40;1.00;;;;;;5055992;28;20060;-61
2021/05/18 17:18:39;;;;;;;1.20;0.70;;;12.30;1.00;;;;;;5057839;28;20102;-61
2021/05/18 17:21:27;;;;;;;2.85;0.93;;;12.20;1.00;;;;;;5061569;28;20455;-61
2021/05/18 17:24:15;;;;;;;1.42;0.68;;;12.10;3.20;;;;;;5059673;28;20064;-60
2021/05/18 17:27:05;;;;;;;0.98;0.60;;;12.10;4.10;;;;;;5056848;28;20048;-62
2021/05/18 17:29:53;;;;;;;3.63;0.70;;;11.90;4.60;;;;;;5054272;28;20053;-62
2021/05/18 17:32:42;;;;;;;1.92;0.80;;;11.80;5.80;;;;;;5059226;28;20049;-61
2021/05/18 17:35:30;;;;;;;0.88;0.63;;;11.80;7.90;;;;;;5060641;28;20041;-61
2021/05/18 17:38:17;;;;;;;3.33;1.10;;;11.80;10.30;;;;;;5057557;28;20067;-61
2021/05/18 17:41:05;;;;;;;2.97;1.00;;;11.80;9.00;;;;;;5056606;28;20388;-61
2021/05/18 17:43:55;;;;;;;2.97;0.80;;;12.20;9.10;;;;;;5058466;28;20523;-62
2021/05/18 17:46:44;;;;;;;2.80;1.17;;;11.90;8.60;;;;;;5056904;28;20044;-61
2021/05/18 17:49:32;;;;;;;2.20;0.68;;;11.80;10.70;;;;;;5061944;28;20106;-60
2021/05/18 17:52:20;;;;;;;1.92;0.70;;;11.90;10.50;;;;;;5062113;28;20123;-61
2021/05/18 17:55:11;;;;;;;3.63;1.17;;;11.70;10.20;;;;;;5053175;28;20075;-61
2021/05/18 17:58:00;;;;;;;4.97;1.45;;;11.90;12.70;;;;;;5052217;28;20146;-61
2021/05/18 18:00:48;;;;;;;2.03;0.90;;;11.70;15.90;;;;;;5049066;28;20053;-62
2021/05/18 18:03:40;;;;;;;2.85;0.93;;;11.60;19.00;;;;;;5046950;28;20067;-64
2021/05/18 18:06:28;;;;;;;1.88;0.82;;;11.30;16.80;;;;;;5056544;28;20052;-65
2021/05/18 18:09:16;;;;;;;4.00;0.90;;;11.30;17.30;;;;;;5049945;28;20136;-64
2021/05/18 18:12:04;;;;;;;2.88;1.45;;;11.60;14.90;;;;;;5060311;28;20058;-65
2021/05/18 18:14:52;;;;;;;4.18;0.70;;;12.30;11.20;;;;;;5060630;28;20057;-64
2021/05/18 18:17:42;;;;;;;2.90;0.70;;;12.10;8.00;;;;;;5056234;28;20631;-64
2021/05/18 18:20:31;;;;;;;1.67;0.90;;;11.80;10.20;;;;;;5057336;28;20311;-65
2021/05/18 18:23:18;;;;;;;1.40;1.00;;;11.70;13.80;;;;;;5056178;28;20049;-64
2021/05/18 18:26:07;;;;;;;2.78;0.75;;;11.70;13.50;;;;;;5060577;28;20047;-64
2021/05/18 18:28:55;;;;;;;1.27;0.70;;;11.60;13.60;;;;;;5058439;28;20512;-65
2021/05/18 18:31:43;;;;;;;3.28;1.30;;;11.80;16.20;;;;;;5054787;28;20055;-63
2021/05/18 18:34:31;;;;;;;0.85;0.70;;;11.80;15.20;;;;;;5056249;28;20056;-63
2021/05/18 18:37:19;;;;;;;1.98;0.80;;;11.40;15.80;;;;;;5056104;28;20056;-65
2021/05/18 18:40:10;;;;;;;1.65;1.05;;;11.20;17.90;;;;;;5060692;28;20052;-66
2021/05/18 18:42:58;;;;;;;2.90;0.95;;;11.40;19.40;;;;;;5045607;28;20041;-64
2021/05/18 18:45:46;;;;;;;2.05;0.75;;;11.40;19.50;;;;;;5043178;28;20044;-65
2021/05/18 18:48:35;;;;;;;2.10;1.08;;;11.30;19.10;;;;;;5052646;28;20182;-65
2021/05/18 18:51:25;;;;;;;2.90;1.50;;;11.10;15.80;;;;;;5059464;28;20049;-65
2021/05/18 18:54:15;;;;;;;1.50;0.95;;;11.00;19.00;;;;;;5054434;28;20052;-65
2021/05/18 18:57:04;;;;;;;2.40;0.93;;;11.00;19.30;;;;;;5052556;28;20049;-65
2021/05/18 18:59:52;;;;;;;2.83;1.10;;;10.90;21.30;;;;;;5055894;28;20048;-64
2021/05/18 19:02:45;;;;;;;2.53;1.05;;;11.00;23.40;;;;;;5042492;28;20403;-65
2021/05/18 19:05:43;;;;;;;1.50;1.10;;;10.90;22.10;;;;;;5045514;28;20059;-65
2021/05/18 19:14:45;;;;;;;2.50;1.05;;;10.80;23.60;;;;;;5055114;28;20536;-65
2021/05/18 19:17:33;;;;;;;2.47;1.25;;;10.70;23.20;;;;;;5052762;28;20036;-65
2021/05/18 19:20:21;;;;;;;3.22;1.20;;;10.70;23.70;;;;;;5057750;28;20496;-65
2021/05/18 19:23:11;;;;;;;2.38;1.50;;;10.60;22.10;;;;;;5055745;28;20048;-65
2021/05/18 19:26:00;;;;;;;4.70;1.88;;;10.50;24.30;;;;;;5044921;28;20041;-64
2021/05/18 19:28:51;;;;;;;1.60;1.38;;;10.50;25.90;;;;;;5051739;28;20137;-65
2021/05/18 19:31:40;;;;;;;3.55;1.27;;;10.40;25.30;;;;;;5058604;28;20412;-66